createdAt,value
2023-11-20T00:02:24.447Z,6.55
2023-11-20T00:04:57.535Z,6.13
2023-11-20T00:07:30.626Z,6.22
2023-11-20T00:10:03.763Z,6.18
2023-11-20T00:12:37.001Z,6.20
2023-11-20T00:15:12.436Z,5.70
2023-11-20T00:17:45.681Z,6.38
2023-11-20T00:20:18.942Z,5.75
2023-11-20T00:22:51.997Z,5.53
2023-11-20T00:25:25.084Z,7.10
2023-11-20T00:27:58.254Z,6.22
2023-11-20T00:30:32.688Z,5.47
2023-11-20T00:33:05.882Z,6.07
2023-11-20T00:35:38.971Z,5.60
2023-11-20T00:38:12.258Z,6.45
2023-11-20T00:40:45.522Z,6.15
2023-11-20T00:43:18.614Z,5.97
2023-11-20T00:45:53.109Z,5.60
2023-11-20T00:48:26.264Z,5.82
2023-11-20T00:50:59.459Z,6.53
2023-11-20T00:53:32.545Z,6.32
2023-11-20T00:56:06.200Z,5.72
2023-11-20T00:58:39.272Z,5.47
2023-11-20T01:01:13.773Z,5.95
2023-11-20T01:03:46.933Z,5.93
2023-11-20T01:06:20.056Z,5.82
2023-11-20T01:08:53.143Z,5.85
2023-11-20T01:11:26.342Z,5.63
2023-11-20T01:14:02.515Z,6.15
2023-11-20T01:16:36.967Z,5.63
2023-11-20T01:19:10.230Z,6.40
2023-11-20T01:21:44.634Z,6.35
2023-11-20T01:24:18.570Z,5.50
2023-11-20T01:26:51.649Z,6.57
2023-11-20T01:29:24.891Z,5.85
2023-11-20T01:31:59.331Z,5.45
2023-11-20T01:34:32.430Z,5.82
2023-11-20T01:37:05.853Z,6.35
2023-11-20T01:39:39.518Z,4.97
2023-11-20T01:42:12.596Z,5.68
2023-11-20T01:44:45.788Z,5.35
2023-11-20T01:47:20.212Z,5.35
2023-11-20T01:49:53.839Z,5.13
2023-11-20T01:52:27.069Z,5.75
2023-11-20T01:55:00.277Z,5.93
2023-11-20T01:57:34.289Z,6.05
2023-11-20T02:00:10.574Z,5.25
2023-11-20T02:02:50.488Z,5.15
2023-11-20T02:05:23.824Z,4.95
2023-11-20T02:07:57.301Z,5.95
2023-11-20T02:10:30.398Z,5.20
2023-11-20T02:13:05.390Z,5.35
2023-11-20T02:15:38.869Z,4.85
2023-11-20T02:18:32.017Z,6.00
2023-11-20T02:21:07.387Z,5.50
2023-11-20T02:23:40.448Z,5.53
2023-11-20T02:26:31.904Z,5.57
2023-11-20T02:29:08.844Z,5.25
2023-11-20T02:31:44.153Z,5.93
2023-11-20T02:34:17.529Z,5.90
2023-11-20T02:36:50.785Z,5.43
2023-11-20T02:39:23.868Z,5.38
2023-11-20T02:41:56.959Z,6.45
2023-11-20T02:44:30.027Z,5.45
2023-11-20T02:47:04.653Z,5.78
2023-11-20T02:49:38.153Z,5.45
2023-11-20T02:52:11.706Z,5.50
2023-11-20T02:54:45.616Z,4.63
2023-11-20T02:57:18.866Z,5.68
2023-11-20T02:59:51.987Z,5.00
2023-11-20T03:02:26.462Z,4.72
2023-11-20T03:04:59.697Z,5.75
2023-11-20T03:07:32.806Z,5.28
2023-11-20T03:10:06.692Z,4.85
2023-11-20T03:12:39.784Z,5.38
2023-11-20T03:15:12.862Z,5.43
2023-11-20T03:17:47.381Z,4.95
2023-11-20T03:20:21.698Z,4.82
2023-11-20T03:22:54.960Z,5.18
2023-11-20T03:25:28.044Z,5.72
2023-11-20T03:28:01.176Z,5.32
2023-11-20T03:30:34.485Z,5.75
2023-11-20T03:33:09.927Z,5.72
2023-11-20T03:35:43.018Z,5.50
2023-11-20T03:38:16.413Z,5.00
2023-11-20T03:40:50.711Z,5.28
2023-11-20T03:43:24.882Z,4.70
2023-11-20T03:45:58.217Z,5.18
2023-11-20T03:48:33.494Z,4.88
2023-11-20T03:51:06.973Z,4.75
2023-11-20T03:53:40.026Z,4.88
2023-11-20T03:56:14.002Z,5.75
2023-11-20T03:58:47.464Z,4.63
2023-11-20T04:01:20.839Z,4.78
2023-11-20T04:03:55.423Z,4.90
2023-11-20T04:06:28.579Z,5.38
2023-11-20T04:09:01.944Z,5.50
2023-11-20T04:11:36.219Z,4.30
2023-11-20T04:16:42.381Z,4.93
2023-11-20T04:19:17.136Z,4.65
2023-11-20T04:21:50.622Z,4.63
2023-11-20T04:24:24.187Z,4.53
2023-11-20T04:26:57.283Z,5.60
2023-11-20T04:29:30.371Z,4.70
2023-11-20T04:32:03.625Z,4.57
2023-11-20T04:34:38.037Z,5.22
2023-11-20T04:37:11.223Z,4.63
2023-11-20T04:39:44.346Z,5.03
2023-11-20T04:42:17.567Z,3.97
2023-11-20T04:44:50.974Z,4.63
2023-11-20T04:47:24.793Z,5.05
2023-11-20T04:49:59.426Z,4.35
2023-11-20T04:52:32.524Z,4.15
2023-11-20T04:55:06.935Z,4.50
2023-11-20T04:57:40.097Z,4.60
2023-11-20T05:00:14.425Z,4.32
2023-11-20T05:02:47.574Z,4.30
2023-11-20T05:05:22.146Z,4.55
2023-11-20T05:07:55.245Z,4.38
2023-11-20T05:10:28.319Z,3.95
2023-11-20T05:13:01.406Z,5.00
2023-11-20T05:15:34.566Z,4.78
2023-11-20T05:18:07.859Z,5.57
2023-11-20T05:20:42.573Z,3.60
2023-11-20T05:23:15.792Z,4.40
2023-11-20T05:25:48.876Z,4.47
2023-11-20T05:28:22.573Z,4.32
2023-11-20T05:33:29.070Z,3.95
2023-11-20T05:36:04.810Z,5.60
2023-11-20T05:38:38.414Z,4.20
2023-11-20T05:41:11.496Z,3.83
2023-11-20T05:43:44.638Z,3.83
2023-11-20T05:46:17.802Z,4.50
2023-11-20T05:48:50.970Z,4.22
2023-11-20T05:51:25.556Z,3.75
2023-11-20T05:53:58.650Z,4.25
2023-11-20T05:56:32.362Z,3.80
2023-11-20T05:59:05.776Z,3.30
2023-11-20T06:01:39.881Z,3.90
2023-11-20T06:04:15.688Z,3.83
2023-11-20T06:06:50.254Z,3.70
2023-11-20T06:09:23.471Z,4.63
2023-11-20T06:11:56.553Z,3.78
2023-11-20T06:14:29.608Z,4.43
2023-11-20T06:17:02.709Z,3.38
2023-11-20T06:19:35.870Z,3.15
2023-11-20T06:22:10.482Z,3.83
2023-11-20T06:24:44.132Z,4.50
2023-11-20T06:27:17.216Z,3.83
2023-11-20T06:29:50.310Z,3.75
2023-11-20T06:32:24.742Z,3.83
2023-11-20T06:34:57.954Z,3.60
2023-11-20T06:37:32.386Z,3.78
2023-11-20T06:40:07.383Z,3.60
2023-11-20T06:42:40.689Z,2.85
2023-11-20T06:45:13.862Z,3.65
2023-11-20T06:47:46.975Z,3.85
2023-11-20T06:50:20.937Z,4.35
2023-11-20T06:52:55.407Z,4.25
2023-11-20T06:55:28.896Z,3.83
2023-11-20T07:00:35.785Z,3.20
2023-11-20T07:03:09.294Z,3.85
2023-11-20T07:05:42.744Z,3.50
2023-11-20T07:08:22.442Z,3.20
2023-11-20T07:10:55.647Z,7.45
2023-11-20T07:13:28.772Z,7.43
2023-11-20T07:16:01.993Z,13.68
2023-11-20T07:18:35.566Z,15.63
2023-11-20T07:21:09.961Z,16.10
2023-11-20T07:23:44.456Z,16.17
2023-11-20T07:26:18.495Z,15.48
2023-11-20T07:28:51.719Z,15.27
2023-11-20T07:31:28.309Z,14.70
2023-11-20T07:34:01.636Z,14.32
2023-11-20T07:36:35.521Z,12.13
2023-11-20T07:39:10.786Z,14.18
2023-11-20T07:41:44.258Z,13.13
2023-11-20T07:44:17.325Z,13.10
2023-11-20T07:46:50.794Z,12.75
2023-11-20T07:49:25.845Z,10.23
2023-11-20T07:51:59.678Z,9.73
2023-11-20T07:54:34.107Z,9.25
2023-11-20T07:57:09.136Z,9.18
2023-11-20T07:59:42.415Z,9.13
2023-11-20T08:02:15.510Z,9.13
2023-11-20T08:04:49.814Z,8.25
2023-11-20T08:07:23.161Z,8.68
2023-11-20T08:09:58.155Z,7.55
2023-11-20T08:12:32.761Z,7.22
2023-11-20T08:15:06.955Z,8.38
2023-11-20T08:17:40.604Z,6.82
2023-11-20T08:20:14.011Z,6.72
2023-11-20T08:22:47.188Z,7.35
2023-11-20T08:25:21.656Z,7.07
2023-11-20T08:27:55.193Z,6.00
2023-11-20T08:30:28.797Z,6.85
2023-11-20T08:33:02.013Z,7.05
2023-11-20T08:35:35.935Z,7.10
2023-11-20T08:38:09.013Z,7.13
2023-11-20T08:40:43.443Z,7.55
2023-11-20T08:43:16.545Z,7.55
2023-11-20T08:45:51.668Z,6.78
2023-11-20T08:48:27.934Z,6.30
2023-11-20T08:51:01.007Z,6.75
2023-11-20T08:53:34.080Z,6.88
2023-11-20T08:56:09.216Z,6.45
2023-11-20T08:58:42.313Z,5.93
2023-11-20T09:01:15.803Z,5.20
2023-11-20T09:03:49.210Z,9.05
2023-11-20T09:06:22.325Z,10.60
2023-11-20T09:08:55.447Z,9.48
2023-11-20T09:11:30.267Z,10.25
2023-11-20T09:14:03.464Z,10.02
2023-11-20T09:16:36.651Z,10.45
2023-11-20T09:19:09.833Z,8.88
2023-11-20T09:21:42.997Z,9.13
2023-11-20T09:24:16.063Z,8.45
2023-11-20T09:26:50.466Z,8.13
2023-11-20T09:29:23.566Z,7.93
2023-11-20T09:31:56.704Z,6.57
2023-11-20T09:34:31.021Z,6.90
2023-11-20T09:37:04.308Z,6.95
2023-11-20T09:39:43.013Z,7.35
2023-11-20T09:42:22.040Z,7.35
2023-11-20T09:44:57.583Z,7.80
2023-11-20T09:47:31.562Z,6.78
2023-11-20T09:50:05.708Z,6.32
2023-11-20T09:52:40.570Z,7.13
2023-11-20T09:55:14.872Z,5.63
2023-11-20T09:57:50.378Z,5.40
2023-11-20T10:00:25.737Z,6.13
2023-11-20T10:03:00.304Z,6.07
2023-11-20T10:05:37.720Z,6.22
2023-11-20T10:08:13.496Z,5.95
2023-11-20T10:10:52.318Z,5.85
2023-11-20T10:13:28.614Z,5.22
2023-11-20T10:16:02.330Z,6.40
2023-11-20T10:18:41.607Z,5.68
2023-11-20T10:21:14.934Z,5.22
2023-11-20T10:23:48.990Z,5.40
2023-11-20T10:26:22.619Z,6.60
2023-11-20T10:28:58.077Z,5.78
2023-11-20T10:31:32.814Z,5.45
2023-11-20T10:34:07.737Z,5.85
2023-11-20T10:36:42.504Z,4.90
2023-11-20T10:39:15.564Z,5.70
2023-11-20T10:41:48.611Z,5.18
2023-11-20T10:44:26.404Z,5.30
2023-11-20T10:47:01.864Z,4.88
2023-11-20T10:49:36.042Z,4.82
2023-11-20T10:52:11.542Z,4.95
2023-11-20T10:54:51.064Z,4.80
2023-11-20T10:57:24.639Z,5.82
2023-11-20T11:00:09.212Z,6.57
2023-11-20T11:02:45.198Z,5.13
2023-11-20T11:05:19.420Z,4.65
2023-11-20T11:07:57.549Z,3.85
2023-11-20T11:10:30.803Z,4.65
2023-11-20T11:13:05.369Z,4.82
2023-11-20T11:15:40.478Z,5.05
2023-11-20T11:18:17.107Z,4.70
2023-11-20T11:20:55.630Z,4.63
2023-11-20T11:23:33.472Z,5.70
2023-11-20T11:26:23.705Z,4.95
2023-11-20T11:28:59.858Z,5.00
2023-11-20T11:31:53.709Z,5.28
2023-11-20T11:34:45.435Z,4.38
2023-11-20T11:37:27.346Z,4.07
2023-11-20T11:40:10.846Z,4.68
2023-11-20T11:42:49.061Z,5.30
2023-11-20T11:45:26.777Z,4.57
2023-11-20T11:48:02.806Z,4.45
2023-11-20T11:50:37.600Z,4.60
2023-11-20T11:53:12.088Z,4.43
2023-11-20T11:55:46.143Z,5.18
2023-11-20T11:58:22.895Z,4.45
2023-11-20T12:01:18.456Z,5.22
2023-11-20T12:03:53.130Z,4.68
2023-11-20T12:06:26.319Z,5.63
2023-11-20T12:09:01.766Z,5.13
2023-11-20T12:11:50.838Z,5.10
2023-11-20T12:14:23.936Z,5.88
2023-11-20T12:17:03.878Z,4.95
2023-11-20T12:19:39.370Z,4.60
2023-11-20T12:22:13.252Z,5.05
2023-11-20T12:24:46.972Z,4.70
2023-11-20T12:27:20.205Z,3.75
2023-11-20T12:29:55.193Z,5.28
2023-11-20T12:32:29.430Z,4.20
2023-11-20T12:35:04.697Z,4.97
2023-11-20T12:37:38.307Z,4.85
2023-11-20T12:40:13.026Z,4.05
2023-11-20T12:42:46.443Z,4.68
2023-11-20T12:45:19.729Z,5.00
2023-11-20T12:47:52.839Z,4.60
2023-11-20T12:50:29.953Z,4.65
2023-11-20T12:53:05.726Z,5.40
2023-11-20T12:55:39.486Z,4.65
2023-11-20T13:00:46.324Z,4.60
2023-11-20T13:03:20.539Z,4.45
2023-11-20T13:05:57.184Z,4.30
2023-11-20T13:08:30.495Z,5.03
2023-11-20T13:11:03.690Z,4.00
2023-11-20T13:13:39.470Z,4.82
2023-11-20T13:16:17.736Z,4.50
2023-11-20T13:18:53.124Z,5.22
2023-11-20T13:21:29.366Z,4.88
2023-11-20T13:24:06.242Z,4.88
2023-11-20T13:26:44.757Z,5.40
2023-11-20T13:29:18.932Z,5.93
2023-11-20T13:31:55.418Z,4.75
2023-11-20T13:34:28.674Z,4.32
2023-11-20T13:37:03.130Z,5.50
2023-11-20T13:39:36.595Z,5.25
2023-11-20T13:42:09.645Z,4.40
2023-11-20T13:44:42.931Z,4.20
2023-11-20T13:47:16.213Z,4.65
2023-11-20T13:49:49.303Z,4.60
2023-11-20T13:52:44.782Z,4.80
2023-11-20T13:55:19.592Z,4.97
2023-11-20T13:57:52.824Z,4.85
2023-11-20T14:00:26.524Z,4.60
2023-11-20T14:03:00.537Z,5.53
2023-11-20T14:05:33.830Z,4.60
2023-11-20T14:08:08.696Z,4.22
2023-11-20T14:10:41.953Z,4.20
2023-11-20T14:13:15.069Z,4.45
2023-11-20T14:15:48.183Z,4.47
2023-11-20T14:18:24.267Z,5.00
2023-11-20T14:20:58.694Z,4.80
2023-11-20T14:26:21.070Z,4.32
2023-11-20T14:29:02.724Z,4.35
2023-11-20T14:31:36.397Z,4.55
2023-11-20T14:36:44.209Z,5.65
2023-11-20T14:39:18.718Z,5.38
2023-11-20T14:41:52.839Z,5.20
2023-11-20T14:44:27.994Z,5.60
2023-11-20T14:47:01.177Z,5.90
2023-11-20T14:49:34.817Z,6.10
2023-11-20T14:52:09.363Z,6.20
2023-11-20T14:59:50.321Z,7.20
2023-11-20T15:02:23.421Z,7.30
2023-11-20T15:04:56.692Z,7.10
2023-11-20T15:07:30.073Z,7.00
2023-11-20T15:10:06.601Z,8.80
2023-11-20T15:12:39.899Z,8.38
2023-11-20T15:15:15.126Z,8.52
2023-11-20T15:17:48.784Z,8.63
2023-11-20T15:22:58.121Z,8.18
2023-11-20T15:25:33.769Z,8.40
2023-11-20T15:28:07.411Z,9.02
2023-11-20T15:30:42.183Z,8.68
2023-11-20T15:33:17.740Z,8.70
2023-11-20T15:35:50.981Z,9.68
2023-11-20T15:38:24.157Z,9.35
2023-11-20T15:40:58.656Z,9.05
2023-11-20T15:43:31.835Z,9.93
2023-11-20T15:46:13.796Z,9.50
2023-11-20T15:48:47.760Z,8.45
2023-11-20T15:53:54.000Z,9.55
2023-11-20T15:56:31.436Z,8.80
2023-11-20T15:59:04.553Z,9.48
2023-11-20T16:01:38.218Z,9.27
2023-11-20T16:04:11.949Z,9.85
2023-11-20T16:06:48.705Z,9.65
2023-11-20T16:09:23.465Z,9.20
2023-11-20T16:11:58.149Z,9.65
2023-11-20T16:14:32.879Z,9.55
2023-11-20T16:17:06.381Z,9.20
2023-11-20T16:19:40.131Z,9.48
2023-11-20T16:22:13.385Z,10.20
2023-11-20T16:24:46.634Z,9.73
2023-11-20T16:27:23.885Z,9.38
2023-11-20T16:29:57.155Z,10.48
2023-11-20T16:32:30.705Z,10.15
2023-11-20T16:35:07.027Z,9.73
2023-11-20T16:37:40.422Z,9.20
2023-11-20T16:40:14.574Z,10.32
2023-11-20T16:42:49.265Z,9.93
2023-11-20T16:45:22.466Z,8.07
2023-11-20T16:47:56.634Z,10.50
2023-11-20T16:50:29.794Z,9.73
2023-11-20T16:53:03.405Z,9.77
2023-11-20T16:55:37.603Z,9.20
2023-11-20T16:58:12.173Z,9.38
2023-11-20T17:00:45.883Z,10.05
2023-11-20T17:03:19.541Z,9.05
2023-11-20T17:05:53.024Z,11.60
2023-11-20T17:08:26.119Z,9.75
2023-11-20T17:10:59.829Z,8.95
2023-11-20T17:16:10.431Z,9.52
2023-11-20T17:18:44.160Z,10.18
2023-11-20T17:21:17.303Z,9.50
2023-11-20T17:23:50.431Z,10.10
2023-11-20T17:26:24.930Z,9.02
2023-11-20T17:28:59.425Z,10.32
2023-11-20T17:31:32.979Z,8.70
2023-11-20T17:34:15.085Z,8.75
2023-11-20T17:36:49.007Z,8.70
2023-11-20T17:39:22.118Z,9.52
2023-11-20T17:41:55.504Z,9.95
2023-11-20T17:44:29.960Z,10.13
2023-11-20T17:47:03.260Z,9.13
2023-11-20T17:49:39.337Z,9.65
2023-11-20T17:52:13.084Z,10.25
2023-11-20T17:57:19.488Z,8.65
2023-11-20T17:59:53.902Z,8.57
2023-11-20T18:02:27.192Z,25.60
2023-11-20T18:05:00.553Z,18.95
2023-11-20T18:07:34.018Z,17.52
2023-11-20T18:10:12.194Z,17.42
2023-11-20T18:12:45.838Z,16.83
2023-11-20T18:15:22.000Z,16.98
2023-11-20T18:17:55.009Z,15.32
2023-11-20T18:20:30.105Z,16.63
2023-11-20T18:23:04.547Z,16.27
2023-11-20T18:25:37.710Z,15.73
2023-11-20T18:28:10.869Z,15.05
2023-11-20T18:30:45.794Z,15.02
2023-11-20T18:33:18.999Z,15.70
2023-11-20T18:35:52.401Z,14.05
2023-11-20T18:38:25.766Z,15.07
2023-11-20T18:40:59.020Z,15.18
2023-11-20T18:43:32.194Z,13.93
2023-11-20T18:46:07.172Z,15.45
2023-11-20T18:48:40.362Z,15.13
2023-11-20T18:51:14.395Z,14.10
2023-11-20T18:53:49.849Z,14.38
2023-11-20T18:56:22.995Z,14.93
2023-11-20T18:58:56.102Z,14.38
2023-11-20T19:01:33.500Z,14.48
2023-11-20T19:04:07.168Z,17.02
2023-11-20T19:06:41.020Z,17.45
2023-11-20T19:09:14.250Z,17.60
2023-11-20T19:11:47.410Z,19.00
2023-11-20T19:14:20.761Z,19.17
2023-11-20T19:16:55.333Z,16.85
2023-11-20T19:19:30.505Z,16.17
2023-11-20T19:22:03.745Z,16.45
2023-11-20T19:24:36.887Z,17.88
2023-11-20T19:27:10.186Z,16.30
2023-11-20T19:29:43.878Z,16.00
2023-11-20T19:32:18.421Z,15.95
2023-11-20T19:34:51.616Z,14.77
2023-11-20T19:37:24.850Z,16.45
2023-11-20T19:39:57.975Z,13.88
2023-11-20T19:42:31.105Z,17.13
2023-11-20T19:45:05.356Z,19.38
2023-11-20T19:47:39.902Z,20.70
2023-11-20T19:50:13.117Z,20.70
2023-11-20T19:52:46.358Z,22.17
2023-11-20T19:55:19.562Z,21.98
2023-11-20T19:57:53.581Z,20.90
2023-11-20T20:00:26.676Z,20.38
2023-11-20T20:03:01.207Z,19.67
2023-11-20T20:05:34.485Z,17.65
2023-11-20T20:08:07.672Z,17.73
2023-11-20T20:10:42.983Z,15.73
2023-11-20T20:13:16.195Z,17.92
2023-11-20T20:15:49.925Z,15.77
2023-11-20T20:20:57.505Z,16.80
2023-11-20T20:23:32.018Z,17.38
2023-11-20T20:26:05.573Z,15.95
2023-11-20T20:28:39.443Z,16.27
2023-11-20T20:31:12.639Z,17.25
2023-11-20T20:33:47.423Z,15.65
2023-11-20T20:36:20.559Z,15.68
2023-11-20T20:38:53.745Z,15.43
2023-11-20T20:41:26.864Z,15.52
2023-11-20T20:44:00.186Z,15.38
2023-11-20T20:46:33.897Z,13.18
2023-11-20T20:49:08.649Z,13.52
2023-11-20T20:51:41.884Z,14.27
2023-11-20T20:54:15.074Z,14.13
2023-11-20T20:56:48.258Z,14.55
2023-11-20T20:59:21.442Z,15.38
2023-11-20T21:01:54.636Z,14.02
2023-11-20T21:04:30.078Z,14.70
2023-11-20T21:07:04.411Z,14.60
2023-11-20T21:09:37.601Z,15.40
2023-11-20T21:12:10.792Z,14.43
2023-11-20T21:14:44.931Z,14.40
2023-11-20T21:17:18.066Z,14.85
2023-11-20T21:19:52.695Z,14.40
2023-11-20T21:22:26.110Z,14.10
2023-11-20T21:24:59.255Z,14.48
2023-11-20T21:27:32.927Z,14.75
2023-11-20T21:30:07.572Z,14.38
2023-11-20T21:32:40.848Z,13.68
2023-11-20T21:35:15.463Z,15.27
2023-11-20T21:37:48.659Z,13.93
2023-11-20T21:40:21.840Z,13.02
2023-11-20T21:42:54.932Z,14.35
2023-11-20T21:45:28.022Z,14.13
2023-11-20T21:48:01.926Z,13.68
2023-11-20T21:50:36.415Z,13.52
2023-11-20T21:53:09.582Z,13.80
2023-11-20T21:55:43.286Z,13.23
2023-11-20T22:00:49.635Z,13.68
2023-11-20T22:03:22.768Z,12.68
2023-11-20T22:05:57.238Z,12.82
2023-11-20T22:08:30.350Z,13.77
2023-11-20T22:11:03.440Z,12.55
2023-11-20T22:13:36.571Z,13.10
2023-11-20T22:16:13.253Z,12.25
2023-11-20T22:18:49.523Z,12.75
2023-11-20T22:21:25.410Z,12.43
2023-11-20T22:23:58.515Z,12.38
2023-11-20T22:26:32.285Z,11.70
2023-11-20T22:31:38.819Z,12.07
2023-11-20T22:34:11.977Z,12.57
2023-11-20T22:36:47.121Z,12.90
2023-11-20T22:39:20.219Z,12.15
2023-11-20T22:41:53.290Z,13.70
2023-11-20T22:44:26.376Z,13.27
2023-11-20T22:46:59.781Z,11.65
2023-11-20T22:49:32.926Z,11.93
2023-11-20T22:52:07.832Z,12.50
2023-11-20T22:54:41.125Z,12.10
2023-11-20T22:57:14.336Z,13.10
2023-11-20T22:59:47.450Z,13.73
2023-11-20T23:02:22.560Z,12.73
2023-11-20T23:04:55.930Z,14.55
2023-11-20T23:07:30.470Z,12.88
2023-11-20T23:10:07.051Z,12.65
2023-11-20T23:12:40.368Z,12.65
2023-11-20T23:15:16.176Z,12.20
2023-11-20T23:17:49.534Z,12.50
2023-11-20T23:20:22.726Z,12.60
2023-11-20T23:22:57.134Z,12.13
2023-11-20T23:25:30.332Z,12.20
2023-11-20T23:28:03.497Z,13.20
2023-11-20T23:30:36.606Z,13.07
2023-11-20T23:33:09.713Z,12.52
2023-11-20T23:35:42.894Z,12.10
2023-11-20T23:38:18.105Z,12.18
2023-11-20T23:40:52.241Z,13.40
2023-11-20T23:43:25.441Z,13.18
2023-11-20T23:46:01.281Z,12.55
2023-11-20T23:48:34.546Z,12.55
2023-11-20T23:51:07.979Z,13.20
2023-11-20T23:53:43.082Z,12.93
2023-11-20T23:56:16.252Z,12.70
2023-11-20T23:58:50.171Z,11.32
